Time;durP1;ratioP1;P1;durP2;ratioP2;P2;SDS_P1;SDS_P2;PMS_P1;PMS_P2;Temp;Humidity;BMP_temperature;BMP_pressure;BME280_temperature;BME280_humidity;BME280_pressure;Samples;Min_cycle;Max_cycle;Signal;HPM_P1;HPM_P2
2024/01/02 00:02:13;;;;;;;;;;;;;;;5.36;93.69;99579.98;110818;1266;22397;-72
2024/01/02 00:05:04;;;;;;;12.00;2.10;;;;;;;5.35;93.88;99577.29;110799;1262;22837;-71
2024/01/02 00:07:55;;;;;;;9.30;1.50;;;;;;;5.36;93.87;99574.90;110829;1270;22885;-72
2024/01/02 00:10:45;;;;;;;11.90;1.80;;;;;;;5.37;93.97;99577.35;110804;1273;23099;-72
2024/01/02 00:13:37;;;;;;;9.10;1.50;;;;;;;5.39;93.97;99579.91;110807;1272;22214;-72
2024/01/02 00:16:27;;;;;;;8.80;1.60;;;;;;;5.39;94.10;99579.64;110785;1273;22225;-71
2024/01/02 00:19:16;;;;;;;;;;;;;;;5.39;94.10;99578.27;110791;1273;22935;-72
2024/01/02 00:22:07;;;;;;;9.30;1.60;;;;;;;5.39;94.15;99576.02;110791;1266;22177;-72
2024/01/02 00:24:58;;;;;;;8.70;1.40;;;;;;;5.38;94.14;99573.19;110724;1274;22172;-71
2024/01/02 00:27:50;;;;;;;9.90;1.50;;;;;;;5.39;94.19;99568.40;110729;1274;22376;-71
2024/01/02 00:30:41;;;;;;;6.90;1.20;;;;;;;5.41;94.18;99572.75;110729;1262;22242;-71
2024/01/02 00:33:31;;;;;;;11.30;1.50;;;;;;;5.41;94.21;99570.52;110800;1273;22210;-70
2024/01/02 00:36:20;;;;;;;;;;;;;;;5.40;94.19;99567.83;110835;1272;22678;-71
2024/01/02 00:39:11;;;;;;;13.70;2.40;;;;;;;5.37;94.04;99572.83;110781;1266;22182;-72
2024/01/02 00:42:00;;;;;;;;;;;;;;;5.36;93.88;99580.85;110782;1273;22366;-72
2024/01/02 00:44:51;;;;;;;10.00;1.60;;;;;;;5.35;93.88;99583.68;110805;1266;22891;-71
2024/01/02 00:47:42;;;;;;;14.00;3.00;;;;;;;5.34;93.89;99585.61;110792;1272;22234;-71
2024/01/02 00:50:33;;;;;;;6.30;1.00;;;;;;;5.34;94.04;99589.52;110797;1269;23040;-71
2024/01/02 00:53:24;;;;;;;3.10;0.60;;;;;;;5.33;93.92;99595.25;110804;1272;22134;-72
2024/01/02 00:56:15;;;;;;;2.10;0.40;;;;;;;5.31;93.90;99598.90;110786;1273;22187;-71
2024/01/02 00:59:06;;;;;;;2.20;0.50;;;;;;;5.28;93.70;99603.67;110817;1270;22174;-71
2024/01/02 01:01:57;;;;;;;2.70;0.30;;;;;;;5.23;93.59;99606.27;110773;1272;22705;-71
2024/01/02 01:04:48;;;;;;;7.40;0.50;;;;;;;5.19;93.37;99607.45;110800;1266;22114;-71
2024/01/02 01:07:37;;;;;;;;;;;;;;;5.15;93.34;99609.52;110821;1272;23233;-72
2024/01/02 01:10:27;;;;;;;5.40;0.60;;;;;;;5.09;93.11;99613.56;110777;1266;23230;-70
2024/01/02 01:13:18;;;;;;;7.70;0.60;;;;;;;5.03;93.16;99612.14;110825;1272;22356;-72
2024/01/02 01:16:09;;;;;;;2.30;0.40;;;;;;;4.99;93.25;99615.42;110795;1266;22184;-72
2024/01/02 01:19:00;;;;;;;3.60;0.40;;;;;;;4.94;93.48;99611.77;110765;1272;23041;-71
2024/01/02 01:21:51;;;;;;;4.80;0.50;;;;;;;4.92;93.61;99610.13;110711;1272;22745;-72
2024/01/02 01:24:41;;;;;;;3.20;0.40;;;;;;;4.89;93.73;99606.52;110742;1262;22231;-72
2024/01/02 01:27:32;;;;;;;2.60;0.40;;;;;;;4.87;93.92;99604.31;110692;1267;22154;-71
2024/01/02 01:30:24;;;;;;;4.80;0.50;;;;;;;4.84;94.13;99602.70;110717;1273;22149;-71
2024/01/02 01:33:15;;;;;;;6.20;0.50;;;;;;;4.82;94.11;99600.39;110728;1272;22188;-72
2024/01/02 01:36:07;;;;;;;5.50;0.60;;;;;;;4.79;94.23;99601.30;110772;1272;23245;-72
2024/01/02 01:38:58;;;;;;;5.20;0.60;;;;;;;4.77;94.19;99599.20;110788;1268;22197;-70
2024/01/02 01:41:48;;;;;;;6.80;0.60;;;;;;;4.77;94.32;99603.08;110822;1266;22232;-72
2024/01/02 01:44:39;;;;;;;8.40;0.60;;;;;;;4.76;94.39;99600.83;110809;1255;22337;-71
2024/01/02 01:47:31;;;;;;;12.10;0.80;;;;;;;4.75;94.47;99597.69;110812;1272;22180;-72
2024/01/02 01:50:22;;;;;;;7.90;0.60;;;;;;;4.74;94.58;99599.41;110782;1262;22217;-70
2024/01/02 01:53:13;;;;;;;6.40;0.70;;;;;;;4.71;94.70;99597.11;110795;1270;22170;-73
2024/01/02 01:56:04;;;;;;;5.90;0.60;;;;;;;4.72;94.78;99597.80;110723;1273;22141;-70
2024/01/02 01:58:55;;;;;;;5.00;0.50;;;;;;;4.72;94.95;99598.61;110709;1255;22967;-71
2024/01/02 02:01:46;;;;;;;;;;;;;;;4.70;95.02;99593.91;110803;1272;23271;-72
2024/01/02 02:04:44;;;;;;;5.10;0.60;;;;;;;4.70;95.10;99592.81;110720;1272;22643;-73
2024/01/02 02:07:35;;;;;;;5.20;1.00;;;;;;;4.71;95.21;99597.70;110788;1272;22241;-71
2024/01/02 02:10:26;;;;;;;7.40;0.90;;;;;;;4.71;95.26;99594.78;110787;1266;22212;-72
2024/01/02 02:13:17;;;;;;;8.20;0.80;;;;;;;4.71;95.33;99589.88;110768;1266;22296;-71
2024/01/02 02:16:08;;;;;;;10.30;0.70;;;;;;;4.72;95.42;99589.74;110741;1266;22107;-75
2024/01/02 02:18:59;;;;;;;7.80;0.60;;;;;;;4.73;95.46;99591.98;110754;1274;22091;-72
2024/01/02 02:21:52;;;;;;;9.30;0.40;;;;;;;4.73;95.43;99594.15;110766;1274;22184;-72
2024/01/02 02:24:43;;;;;;;4.70;0.50;;;;;;;4.72;95.57;99589.50;110692;1274;22193;-72
2024/01/02 02:27:34;;;;;;;4.40;0.40;;;;;;;4.74;95.65;99590.95;110793;1272;22239;-71
2024/01/02 02:30:25;;;;;;;9.20;0.90;;;;;;;4.72;95.65;99589.57;110773;1272;22327;-72
2024/01/02 02:33:16;;;;;;;5.90;1.00;;;;;;;4.74;95.71;99587.52;110712;1272;22802;-72
2024/01/02 02:36:06;;;;;;;;;;;;;;;4.76;95.59;99585.48;110794;1265;22323;-71
2024/01/02 02:38:57;;;;;;;7.40;0.70;;;;;;;4.75;95.50;99584.27;110831;1272;22883;-71
2024/01/02 02:41:46;;;;;;;;;;;;;;;4.76;95.57;99581.91;110778;1270;22411;-72
2024/01/02 02:44:36;;;;;;;5.50;0.70;;;;;;;4.77;95.27;99579.98;110811;1272;22160;-71
2024/01/02 02:47:27;;;;;;;5.40;0.60;;;;;;;4.77;95.06;99574.84;110806;1269;22173;-72
2024/01/02 02:50:19;;;;;;;6.10;0.90;;;;;;;4.76;94.88;99572.29;110791;1269;22246;-72
2024/01/02 02:53:09;;;;;;;11.00;0.90;;;;;;;4.73;94.65;99573.59;110772;1270;23021;-72
2024/01/02 02:56:00;;;;;;;10.70;0.80;;;;;;;4.69;94.52;99571.45;110799;1270;22113;-73
2024/01/02 02:58:49;;;;;;;;;;;;;;;4.67;94.38;99569.89;110776;1272;22491;-72
2024/01/02 03:01:38;;;;;;;;;;;;;;;4.60;94.25;99570.78;110829;1270;22383;-72
2024/01/02 03:04:27;;;;;;;;;;;;;;;4.54;94.27;99570.54;110805;1272;22346;-72
2024/01/02 03:07:16;;;;;;;;;;;;;;;4.50;94.26;99570.89;110820;1266;23073;-71
2024/01/02 03:10:06;;;;;;;;;;;;;;;4.46;94.50;99565.45;110809;1266;22416;-74
2024/01/02 03:12:55;;;;;;;;;;;;;;;4.41;94.62;99566.64;110828;1272;22280;-72
2024/01/02 03:15:44;;;;;;;;;;;;;;;4.36;94.83;99568.89;110800;1270;22248;-71
2024/01/02 03:18:33;;;;;;;;;;;;;;;4.31;95.06;99566.81;110787;1272;23152;-71
2024/01/02 03:21:27;;;;;;;;;;;;;;;4.25;95.27;99569.64;110791;1269;22508;-72
2024/01/02 03:24:16;;;;;;;;;;;;;;;4.22;95.52;99567.37;110766;1272;22342;-72
2024/01/02 03:27:06;;;;;;;;;;;;;;;4.21;95.73;99566.23;110771;1267;22411;-72
2024/01/02 03:29:55;;;;;;;;;;;;;;;4.22;95.96;99568.50;110775;1272;23306;-71
2024/01/02 03:32:44;;;;;;;;;;;;;;;4.20;96.02;99565.25;110805;1271;22398;-72
2024/01/02 03:35:33;;;;;;;;;;;;;;;4.18;96.12;99564.38;110788;1269;22608;-71
2024/01/02 03:38:22;;;;;;;;;;;;;;;4.16;96.16;99567.31;110793;1273;22920;-73
2024/01/02 03:41:11;;;;;;;;;;;;;;;4.14;96.20;99562.78;110752;1273;22481;-71
2024/01/02 03:44:00;;;;;;;;;;;;;;;4.15;96.34;99558.10;110801;1267;22299;-73
2024/01/02 03:46:50;;;;;;;;;;;;;;;4.16;96.42;99559.57;110805;1272;23013;-71
2024/01/02 03:49:39;;;;;;;;;;;;;;;4.17;96.56;99565.35;110802;1273;23159;-72
2024/01/02 03:52:28;;;;;;;;;;;;;;;4.18;96.54;99563.81;110799;1266;23130;-73
2024/01/02 03:55:17;;;;;;;;;;;;;;;4.20;96.55;99558.14;110791;1273;22408;-72
2024/01/02 03:58:06;;;;;;;;;;;;;;;4.21;96.58;99556.13;110810;1262;22274;-72
2024/01/02 04:00:55;;;;;;;;;;;;;;;4.22;96.54;99556.63;110775;1262;22397;-71
2024/01/02 04:03:44;;;;;;;;;;;;;;;4.24;96.45;99556.43;110749;1274;22340;-73
2024/01/02 04:06:33;;;;;;;;;;;;;;;4.24;96.40;99555.23;110761;1274;22774;-72
2024/01/02 04:09:22;;;;;;;;;;;;;;;4.24;96.49;99549.41;110817;1273;22499;-73
2024/01/02 04:12:12;;;;;;;;;;;;;;;4.25;96.49;99545.96;110770;1270;22490;-71
2024/01/02 04:15:01;;;;;;;;;;;;;;;4.24;96.26;99541.17;110823;1272;22412;-72
2024/01/02 04:17:49;;;;;;;;;;;;;;;4.23;96.20;99541.62;110794;1266;22385;-72
2024/01/02 04:20:38;;;;;;;;;;;;;;;4.24;96.06;99540.56;110787;1272;23147;-73
2024/01/02 04:23:28;;;;;;;;;;;;;;;4.26;95.93;99538.36;110813;1273;22401;-72
2024/01/02 04:26:17;;;;;;;;;;;;;;;4.27;95.74;99534.27;110795;1265;22296;-74
2024/01/02 04:29:06;;;;;;;;;;;;;;;4.27;95.52;99534.34;110787;1270;22507;-71
2024/01/02 04:31:55;;;;;;;;;;;;;;;4.27;95.28;99534.83;110814;1270;22430;-71
2024/01/02 04:34:44;;;;;;;;;;;;;;;4.26;94.95;99528.47;110757;1262;22496;-74
2024/01/02 04:37:33;;;;;;;;;;;;;;;4.24;94.71;99523.83;110760;1272;22505;-73
2024/01/02 04:40:22;;;;;;;;;;;;;;;4.20;94.24;99520.34;110809;1272;22421;-71
2024/01/02 04:43:11;;;;;;;;;;;;;;;4.15;94.07;99516.76;110792;1273;22443;-72
2024/01/02 04:46:00;;;;;;;;;;;;;;;4.10;93.97;99517.63;110826;1272;22919;-73
2024/01/02 04:48:49;;;;;;;;;;;;;;;4.06;94.03;99514.54;110783;1273;22389;-71
2024/01/02 04:51:39;;;;;;;;;;;;;;;4.04;93.86;99508.46;110606;1273;22624;-71
2024/01/02 04:54:28;;;;;;;;;;;;;;;3.99;93.60;99509.52;107594;1270;23106;-71
2024/01/02 04:57:17;;;;;;;;;;;;;;;3.94;93.48;99501.52;107584;1269;24212;-71
2024/01/02 05:00:08;;;;;;;;;;;;;;;3.89;93.65;99496.89;107578;1272;22506;-72
2024/01/02 05:02:57;;;;;;;;;;;;;;;3.84;93.47;99493.44;107460;1273;22642;-70
2024/01/02 05:05:47;;;;;;;;;;;;;;;3.78;93.11;99497.40;107507;1271;24215;-70
2024/01/02 05:08:36;;;;;;;;;;;;;;;3.69;93.08;99495.68;107499;1265;23896;-71
2024/01/02 05:11:25;;;;;;;;;;;;;;;3.64;93.34;99493.33;107519;1266;22559;-70
2024/01/02 05:14:16;;;;;;;;;;;;;;;3.60;93.22;99496.02;107510;1273;22540;-71
2024/01/02 05:17:05;;;;;;;;;;;;;;;3.55;92.97;99493.29;107668;1272;22659;-72
2024/01/02 05:19:55;;;;;;;;;;;;;;;3.47;92.90;99489.52;107538;1269;22631;-71
2024/01/02 05:22:44;;;;;;;;;;;;;;;3.38;92.77;99492.71;107427;1266;22603;-70
2024/01/02 05:25:33;;;;;;;;;;;;;;;3.31;92.87;99490.34;107479;1270;24190;-71
2024/01/02 05:28:22;;;;;;;;;;;;;;;3.26;93.00;99489.83;107423;1267;22536;-70
2024/01/02 05:31:12;;;;;;;;;;;;;;;3.21;93.12;99491.65;107566;1263;24292;-71
2024/01/02 05:34:01;;;;;;;;;;;;;;;3.13;93.08;99492.63;107492;1270;24193;-71
2024/01/02 05:36:51;;;;;;;;;;;;;;;3.08;93.28;99489.33;107549;1272;26464;-70
2024/01/02 05:39:40;;;;;;;;;;;;;;;3.05;93.49;99488.64;107418;1274;22912;-72
2024/01/02 05:42:30;;;;;;;;;;;;;;;3.03;93.36;99489.84;107615;1273;25252;-70
2024/01/02 05:45:19;;;;;;;;;;;;;;;2.99;93.56;99489.41;107558;1272;24235;-70
2024/01/02 05:48:09;;;;;;;;;;;;;;;2.97;93.51;99493.09;107962;1272;24375;-71
2024/01/02 05:50:58;;;;;;;;;;;;;;;2.94;93.40;99498.58;108192;1273;22695;-71
2024/01/02 05:53:48;;;;;;;;;;;;;;;2.87;93.45;99495.73;108215;1272;23240;-72
2024/01/02 05:56:37;;;;;;;;;;;;;;;2.84;93.65;99494.16;108284;1272;23397;-72
2024/01/02 05:59:27;;;;;;;;;;;;;;;2.82;93.66;99494.11;108413;1266;22540;-73
2024/01/02 06:02:16;;;;;;;;;;;;;;;2.80;93.72;99497.48;108257;1268;22575;-71
2024/01/02 06:05:06;;;;;;;;;;;;;;;2.75;93.70;99496.92;108033;1272;24194;-73
2024/01/02 06:07:55;;;;;;;;;;;;;;;2.71;93.76;99489.80;108196;1269;22593;-71
2024/01/02 06:10:45;;;;;;;;;;;;;;;2.67;93.88;99486.42;108191;1273;23693;-71
2024/01/02 06:13:34;;;;;;;;;;;;;;;2.63;93.92;99485.77;108674;1270;22634;-70
2024/01/02 06:16:24;;;;;;;;;;;;;;;2.59;94.06;99485.12;108368;1267;22568;-72
2024/01/02 06:19:17;;;;;;;;;;;;;;;2.56;94.20;99485.76;108231;1266;22544;-71
2024/01/02 06:22:07;;;;;;;;;;;;;;;2.57;94.39;99481.87;108492;1273;24180;-72
2024/01/02 06:24:56;;;;;;;;;;;;;;;2.58;94.41;99484.74;108668;1263;23591;-74
2024/01/02 06:27:45;;;;;;;;;;;;;;;2.58;94.38;99483.48;108227;1274;22559;-71
2024/01/02 06:30:35;;;;;;;;;;;;;;;2.57;94.39;99483.27;108462;1274;22629;-72
2024/01/02 06:33:25;;;;;;;;;;;;;;;2.56;94.37;99480.46;108141;1270;22624;-71
2024/01/02 06:36:14;;;;;;;;;;;;;;;2.58;94.45;99481.60;108401;1271;25042;-72
2024/01/02 06:39:03;;;;;;;;;;;;;;;2.57;94.42;99482.24;108380;1270;22545;-72
2024/01/02 06:41:53;;;;;;;;;;;;;;;2.56;94.44;99480.56;108317;1270;24201;-72
2024/01/02 06:44:42;;;;;;;;;;;;;;;2.56;94.44;99475.98;108199;1272;22501;-71
2024/01/02 06:47:32;;;;;;;;;;;;;;;2.54;94.60;99476.04;108629;1270;27033;-72
2024/01/02 06:50:21;;;;;;;;;;;;;;;2.54;94.62;99470.85;108452;1269;22546;-71
2024/01/02 06:53:11;;;;;;;;;;;;;;;2.54;94.74;99462.59;108338;1273;25210;-73
2024/01/02 06:56:00;;;;;;;;;;;;;;;2.55;94.87;99459.39;108349;1272;25265;-71
2024/01/02 06:58:49;;;;;;;;;;;;;;;2.57;94.93;99460.52;108177;1270;22602;-71
2024/01/02 07:01:38;;;;;;;;;;;;;;;2.60;94.87;99454.05;108366;1270;22508;-71
2024/01/02 07:04:28;;;;;;;;;;;;;;;2.62;94.86;99443.91;108385;1266;22773;-71
2024/01/02 07:07:17;;;;;;;;;;;;;;;2.64;94.96;99444.39;108558;1266;24352;-71
2024/01/02 07:10:07;;;;;;;;;;;;;;;2.67;94.87;99439.48;108130;1272;24191;-72
2024/01/02 07:12:57;;;;;;;;;;;;;;;2.69;94.81;99443.36;108499;1267;22617;-71
2024/01/02 07:15:46;;;;;;;;;;;;;;;2.69;94.73;99442.65;108107;1263;24169;-71
2024/01/02 07:18:36;;;;;;;;;;;;;;;2.69;94.86;99438.37;108563;1274;22587;-71
2024/01/02 07:21:26;;;;;;;;;;;;;;;2.69;94.78;99435.15;108344;1270;23363;-71
2024/01/02 07:24:16;;;;;;;;;;;;;;;2.68;94.94;99429.91;108580;1272;22654;-70
2024/01/02 07:27:06;;;;;;;;;;;;;;;2.66;95.00;99423.83;108309;1272;24176;-71
2024/01/02 07:29:55;;;;;;;;;;;;;;;2.67;95.14;99418.55;108580;1270;22632;-70
2024/01/02 07:32:45;;;;;;;;;;;;;;;2.69;95.21;99419.10;108527;1272;23277;-70
2024/01/02 07:35:34;;;;;;;;;;;;;;;2.70;95.24;99415.36;108441;1267;22525;-71
2024/01/02 07:38:26;;;;;;;;;;;;;;;2.72;95.31;99413.23;108738;1267;22638;-73
2024/01/02 07:41:15;;;;;;;;;;;;;;;2.75;95.43;99412.12;108527;1270;26645;-70
2024/01/02 07:44:06;;;;;;;;;;;;;;;2.77;95.50;99410.64;108599;1270;23298;-71
2024/01/02 07:46:57;;;;;;;;;;;;;;;2.78;95.61;99411.45;108154;1272;24560;-71
2024/01/02 07:49:46;;;;;;;;;;;;;;;2.79;95.70;99409.06;108670;1272;22567;-72
2024/01/02 07:52:36;;;;;;;;;;;;;;;2.79;95.84;99404.41;108555;1267;27022;-71
2024/01/02 07:55:25;;;;;;;;;;;;;;;2.81;95.87;99402.47;108831;1267;22972;-71
2024/01/02 07:58:15;;;;;;;;;;;;;;;2.81;95.92;99396.80;108302;1267;23288;-71
2024/01/02 08:01:05;;;;;;;;;;;;;;;2.80;95.99;99397.92;108563;1272;22553;-72
2024/01/02 08:03:54;;;;;;;;;;;;;;;2.79;96.18;99394.50;108350;1273;22531;-71
2024/01/02 08:06:43;;;;;;;;;;;;;;;2.79;96.27;99393.88;108609;1272;25462;-71
2024/01/02 08:09:33;;;;;;;;;;;;;;;2.79;96.35;99391.50;108141;1272;22537;-71
2024/01/02 08:12:22;;;;;;;;;;;;;;;2.81;96.48;99389.94;108406;1270;22539;-70
2024/01/02 08:15:12;;;;;;;;;;;;;;;2.83;96.60;99387.65;108252;1267;24355;-71
2024/01/02 08:18:01;;;;;;;;;;;;;;;2.85;96.64;99385.77;108395;1267;22539;-71
2024/01/02 08:20:52;;;;;;;;;;;;;;;2.89;96.73;99388.16;108427;1263;23103;-71
2024/01/02 08:23:42;;;;;;;;;;;;;;;2.92;96.91;99387.19;108144;1269;22527;-71
2024/01/02 08:26:31;;;;;;;;;;;;;;;2.95;97.05;99385.95;108487;1266;22658;-71
2024/01/02 08:29:21;;;;;;;;;;;;;;;2.98;97.12;99383.67;108161;1272;22648;-71
2024/01/02 08:32:10;;;;;;;;;;;;;;;3.00;97.29;99381.06;108590;1270;22523;-71
2024/01/02 08:35:00;;;;;;;;;;;;;;;3.03;97.34;99384.10;108021;1270;23350;-71
2024/01/02 08:37:49;;;;;;;;;;;;;;;3.07;97.60;99378.52;108057;1272;22666;-71
2024/01/02 08:40:39;;;;;;;;;;;;;;;3.11;97.68;99375.21;107860;1268;23357;-71
2024/01/02 08:43:28;;;;;;;;;;;;;;;3.15;97.80;99375.61;108017;1267;22516;-72
2024/01/02 08:46:17;;;;;;;;;;;;;;;3.19;97.87;99370.38;107927;1267;22705;-71
2024/01/02 08:49:08;;;;;;;;;;;;;;;3.22;97.96;99369.36;108108;1265;22952;-71
2024/01/02 08:51:57;;;;;;;;;;;;;;;3.27;98.00;99364.45;107801;1272;26221;-71
2024/01/02 08:54:47;;;;;;;;;;;;;;;3.33;98.10;99357.89;108115;1272;24315;-71
2024/01/02 08:57:36;;;;;;;;;;;;;;;3.38;98.14;99356.33;108092;1272;22958;-71
2024/01/02 09:00:26;;;;;;;;;;;;;;;3.43;98.24;99355.36;108005;1265;22502;-71
2024/01/02 09:03:15;;;;;;;;;;;;;;;3.48;98.31;99355.19;108139;1272;22541;-72
2024/01/02 09:06:05;;;;;;;;;;;;;;;3.53;98.36;99352.77;108192;1267;22616;-71
2024/01/02 09:08:57;;;;;;;;;;;;;;;3.59;98.55;99346.86;107919;1264;25341;-70
2024/01/02 09:11:47;;;;;;;;;;;;;;;3.63;98.46;99339.04;110805;1270;22412;-72
2024/01/02 09:14:36;;;;;;;;;;;;;;;3.69;98.44;99337.65;110803;1270;22421;-71
2024/01/02 09:17:25;;;;;;;;;;;;;;;3.74;98.50;99334.60;110778;1269;22414;-71
2024/01/02 09:20:14;;;;;;;;;;;;;;;3.78;98.51;99331.97;110786;1266;23220;-72
2024/01/02 09:23:04;;;;;;;;;;;;;;;3.84;98.55;99326.92;110767;1270;22368;-72
2024/01/02 09:25:54;;;;;;;;;;;;;;;3.89;98.57;99322.44;110773;1266;23499;-71
2024/01/02 09:28:44;;;;;;;;;;;;;;;3.95;98.43;99320.30;110765;1267;22335;-71
2024/01/02 09:31:33;;;;;;;;;;;;;;;4.01;98.49;99315.57;110767;1272;23256;-72
2024/01/02 09:34:22;;;;;;;;;;;;;;;4.07;98.52;99307.66;110748;1266;22915;-73
2024/01/02 09:37:12;;;;;;;;;;;;;;;4.14;98.75;99298.90;110774;1266;22339;-71
2024/01/02 09:40:03;;;;;;;;;;;;;;;4.20;98.69;99297.52;110800;1264;22222;-72
2024/01/02 09:42:59;;;;;;;;;;;;;;;4.26;98.69;99295.62;110726;1274;23107;-71
2024/01/02 09:45:56;;;;;;;;;;;;;;;4.32;98.64;99290.15;110709;1274;22192;-71
2024/01/02 09:48:52;;;;;;;;;;;;;;;4.39;98.53;99284.54;110561;1274;162295;-71
2024/01/02 09:51:46;;;;;;;;;;;;;;;4.46;98.56;99281.40;110777;1272;22263;-71
2024/01/02 09:54:41;;;;;;;;;;;;;;;4.53;98.67;99274.40;110697;1274;22304;-71
2024/01/02 09:57:34;;;;;;;;;;;;;;;4.59;98.45;99262.71;110779;1272;22403;-71
2024/01/02 10:00:26;;;;;;;;;;;;;;;4.67;98.33;99253.22;110770;1270;22468;-72
2024/01/02 10:03:23;;;;;;;;;;;;;;;4.76;98.54;99243.64;110753;1262;23052;-71
2024/01/02 10:06:23;;;;;;;;;;;;;;;4.84;98.63;99235.38;110763;1259;23181;-71
2024/01/02 10:09:22;;;;;;;;;;;;;;;4.92;98.39;99231.94;110753;1270;23683;-72
2024/01/02 10:12:17;;;;;;;;;;;;;;;5.00;98.25;99231.98;110796;1270;22405;-72
2024/01/02 10:15:13;;;;;;;;;;;;;;;5.07;98.31;99230.54;110787;1272;23249;-72
2024/01/02 10:18:09;;;;;;;;;;;;;;;5.13;98.16;99220.59;110799;1272;22378;-71
2024/01/02 10:21:08;;;;;;;;;;;;;;;5.19;98.11;99216.77;110759;1262;22491;-71
2024/01/02 10:24:03;;;;;;;;;;;;;;;5.25;98.19;99214.25;110773;1267;23294;-72
2024/01/02 10:27:01;;;;;;;;;;;;;;;5.30;97.99;99205.00;110745;1266;22916;-72
2024/01/02 10:29:58;;;;;;;;;;;;;;;5.34;97.74;99195.98;110785;1266;22420;-72
2024/01/02 10:32:54;;;;;;;;;;;;;;;5.37;97.78;99194.39;110775;1272;22354;-71
2024/01/02 10:35:45;;;;;;;;;;;;;;;5.39;97.33;99188.50;110795;1266;22496;-71
2024/01/02 10:38:40;;;;;;;;;;;;;;;5.43;97.19;99181.69;110812;1270;22336;-71
2024/01/02 10:41:39;;;;;;;;;;;;;;;5.44;96.97;99171.20;110799;1265;22421;-72
2024/01/02 10:44:35;;;;;;;;;;;;;;;5.47;96.93;99165.36;110772;1270;22391;-71
2024/01/02 10:47:31;;;;;;;;;;;;;;;5.49;97.22;99159.45;110807;1265;22396;-72
2024/01/02 10:50:23;;;;;;;;;;;;;;;5.52;96.80;99156.88;110818;1265;22570;-72
2024/01/02 10:53:19;;;;;;;;;;;;;;;5.53;96.55;99150.65;110786;1270;22393;-72
2024/01/02 10:56:13;;;;;;;;;;;;;;;5.55;96.65;99142.80;110761;1267;22324;-71
2024/01/02 10:59:08;;;;;;;;;;;;;;;5.58;96.68;99139.64;110810;1265;22315;-72
2024/01/02 11:02:01;;;;;;;;;;;;;;;5.62;96.64;99135.20;110833;1265;22408;-71
2024/01/02 11:04:55;;;;;;;;;;;;;;;5.64;96.66;99128.80;110793;1272;22375;-71
2024/01/02 11:07:47;;;;;;;;;;;;;;;5.68;96.45;99119.65;110779;1270;22394;-72
2024/01/02 11:10:39;;;;;;;;;;;;;;;5.71;96.27;99111.61;110752;1269;22532;-71
2024/01/02 11:13:28;;;;;;;;;;;;;;;5.73;96.28;99109.36;110820;1272;22384;-72
2024/01/02 11:16:18;;;;;;;;;;;;;;;5.75;96.00;99105.86;110795;1266;22979;-72
2024/01/02 11:19:08;;;;;;;;;;;;;;;5.77;95.96;99100.46;110751;1265;22498;-72
2024/01/02 11:22:01;;;;;;;;;;;;;;;5.79;95.84;99100.34;110792;1272;22277;-72
2024/01/02 11:24:54;;;;;;;;;;;;;;;5.82;95.69;99097.23;110724;1272;22382;-71
2024/01/02 11:27:44;;;;;;;;;;;;;;;5.84;95.35;99091.74;110721;1274;22317;-71
2024/01/02 11:30:35;;;;;;;;;;;;;;;5.87;95.39;99088.83;110821;1272;22268;-72
2024/01/02 11:33:31;;;;;;;;;;;;;;;5.89;95.16;99080.98;110807;1269;22357;-71
2024/01/02 11:36:25;;;;;;;;;;;;;;;5.92;95.20;99073.67;110788;1266;22442;-71
2024/01/02 11:39:16;;;;;;;;;;;;;;;5.95;94.59;99072.08;110755;1265;22456;-70
2024/01/02 11:42:08;;;;;;;;;;;;;;;5.98;94.56;99073.29;110791;1273;23596;-72
2024/01/02 11:45:08;;;;;;;;;;;;;;;6.01;94.52;99074.25;110769;1273;22405;-72
2024/01/02 11:48:05;;;;;;;;;;;;;;;6.03;94.34;99066.38;110815;1265;22544;-71
2024/01/02 11:50:56;;;;;;;;;;;;;;;6.04;94.29;99055.21;110769;1266;22440;-71
2024/01/02 11:53:53;;;;;;;;;;;;;;;6.06;94.31;99046.23;110779;1273;22449;-72
2024/01/02 11:56:43;;;;;;;;;;;;;;;6.08;94.40;99036.13;110780;1265;22415;-71
2024/01/02 11:59:38;;;;;;;;;;;;;;;6.09;94.60;99035.95;110747;1270;22447;-71
2024/01/02 12:02:35;;;;;;;;;;;;;;;6.11;94.60;99036.19;110813;1273;22307;-71
2024/01/02 12:05:32;;;;;;;;;;;;;;;6.13;94.56;99029.89;110828;1266;22402;-73
2024/01/02 12:08:26;;;;;;;;;;;;;;;6.13;94.50;99017.13;110783;1266;22328;-71
2024/01/02 12:11:17;;;;;;;;;;;;;;;6.15;94.75;99011.98;110783;1273;22331;-72
2024/01/02 12:14:11;;;;;;;;;;;;;;;6.16;94.91;98999.20;110805;1265;22325;-71
2024/01/02 12:17:01;;;;;;;;;;;;;;;6.16;94.86;98986.52;110769;1266;22403;-71
2024/01/02 12:19:52;;;;;;;;;;;;;;;6.14;94.59;98983.20;110745;1265;22381;-71
2024/01/02 12:22:41;;;;;;;;;;;;;;;6.13;94.84;98980.75;110765;1265;22381;-71
2024/01/02 12:25:30;;;;;;;;;;;;;;;6.11;94.61;98970.45;110748;1270;22398;-71
2024/01/02 12:28:23;;;;;;;;;;;;;;;6.10;94.86;98959.91;110793;1273;23330;-72
2024/01/02 12:31:20;;;;;;;;;;;;;;;6.07;94.80;98958.25;110754;1266;22406;-71
2024/01/02 12:34:18;;;;;;;;;;;;;;;6.04;94.87;98959.96;110797;1266;22662;-72
2024/01/02 12:37:13;;;;;;;;;;;;;;;6.02;94.82;98961.30;110765;1266;22773;-72
2024/01/02 12:40:06;;;;;;;;;;;;;;;6.00;95.04;98948.82;110758;1273;22260;-72
2024/01/02 12:42:58;;;;;;;;;;;;;;;5.96;94.81;98938.38;110751;1273;22198;-73
2024/01/02 12:45:50;;;;;;;;;;;;;;;5.91;95.05;98930.69;110739;1273;22211;-72
2024/01/02 12:48:45;;;;;;;;;;;;;;;5.87;95.00;98929.77;110740;1274;23065;-73
2024/01/02 12:51:36;;;;;;;;;;;;;;;5.84;95.04;98929.66;110710;1274;22280;-72
2024/01/02 12:54:25;;;;;;;;;;;;;;;5.82;95.10;98921.69;110794;1265;22320;-72
2024/01/02 12:57:16;;;;;;;;;;;;;;;5.80;95.04;98917.45;110807;1271;22556;-72
2024/01/02 13:00:07;;;;;;;;;;;;;;;5.78;94.83;98915.04;110781;1266;22340;-71
2024/01/02 13:02:56;;;;;;;;;;;;;;;5.79;94.96;98920.23;110786;1270;22302;-72
2024/01/02 13:05:47;;;;;;;;;;;;;;;5.78;95.13;98914.94;110784;1265;22833;-72
2024/01/02 13:08:37;;;;;;;;;;;;;;;5.78;95.26;98910.95;110805;1267;22410;-71
2024/01/02 13:11:27;;;;;;;;;;;;;;;5.77;95.49;98907.77;110755;1273;22895;-71
2024/01/02 13:14:18;;;;;;;;;;;;;;;5.77;95.52;98900.15;110759;1270;22506;-72
2024/01/02 13:17:07;;;;;;;;;;;;;;;5.75;94.73;98890.42;110772;1270;22390;-71
2024/01/02 13:19:58;;;;;;;;;;;;;;;5.73;94.75;98885.35;110763;1273;22335;-72
2024/01/02 13:22:47;;;;;;;;;;;;;;;5.73;95.13;98882.23;110762;1273;22477;-71
2024/01/02 13:25:40;;;;;;;;;;;;;;;5.72;95.19;98869.59;110784;1265;22382;-72
2024/01/02 13:28:30;;;;;;;;;;;;;;;5.71;95.38;98859.85;110769;1272;22538;-73
2024/01/02 13:31:29;;;;;;;;;;;;;;;5.71;95.53;98858.90;110773;1266;22426;-72
2024/01/02 13:34:25;;;;;;;;;;;;;;;5.70;95.44;98857.31;110700;1272;22552;-71
2024/01/02 13:37:24;;;;;;;;;;;;;;;5.69;95.46;98855.27;110808;1266;22353;-72
2024/01/02 13:40:21;;;;;;;;;;;;;;;5.66;95.24;98851.58;110792;1266;22557;-72
2024/01/02 13:43:11;;;;;;;;;;;;;;;5.66;95.40;98844.65;110779;1266;22471;-72
2024/01/02 13:46:10;;;;;;;;;;;;;;;5.66;95.12;98845.45;110777;1272;22290;-72
2024/01/02 13:48:59;;;;;;;;;;;;;;;5.64;95.46;98842.61;110750;1274;22299;-71
2024/01/02 13:51:48;;;;;;;;;;;;;;;5.63;95.62;98833.33;110787;1273;22225;-72
2024/01/02 13:54:43;;;;;;;;;;;;;;;5.62;95.65;98827.23;110717;1274;22296;-72
2024/01/02 13:57:33;;;;;;;;;;;;;;;5.61;95.55;98819.11;110806;1273;22273;-72
2024/01/02 14:00:23;;;;;;;;;;;;;;;5.61;95.67;98821.12;110784;1266;22438;-72
2024/01/02 14:03:12;;;;;;;;;;;;;;;5.58;95.69;98821.69;110799;1266;22386;-73
2024/01/02 14:06:01;;;;;;;;;;;;;;;5.56;95.64;98821.10;110827;1270;22321;-72
2024/01/02 14:09:08;;;;;;;;;;;;;;;5.55;95.59;98817.10;110798;1272;23414;-71
2024/01/02 14:11:58;;;;;;;;;;;;;;;5.54;95.78;98817.34;110749;1270;22311;-73
2024/01/02 14:14:52;;;;;;;;;;;;;;;5.53;95.84;98809.16;110810;1270;22395;-72
2024/01/02 14:17:43;;;;;;;;;;;;;;;5.52;95.81;98801.45;110774;1272;22531;-72
2024/01/02 14:20:34;;;;;;;;;;;;;;;5.50;95.83;98798.84;110811;1266;22526;-72
2024/01/02 14:23:27;;;;;;;;;;;;;;;5.49;95.90;98798.90;110775;1272;22393;-73
2024/01/02 14:26:20;;;;;;;;;;;;;;;5.48;95.72;98790.36;110776;1265;22987;-72
2024/01/02 14:29:14;;;;;;;;;;;;;;;5.45;95.87;98792.09;110821;1262;22314;-72
2024/01/02 14:32:07;;;;;;;;;;;;;;;5.45;95.96;98789.91;110804;1265;22381;-72
2024/01/02 14:35:01;;;;;;;;;;;;;;;5.45;96.26;98783.57;110808;1265;22447;-71